Time;durP1;ratioP1;P1;durP2;ratioP2;P2;SDS_P1;SDS_P2;PMS_P1;PMS_P2;Temp;Humidity;BMP_temperature;BMP_pressure;BME280_temperature;BME280_humidity;BME280_pressure;Samples;Min_cycle;Max_cycle;Signal;HPM_P1;HPM_P2
2023/07/05 12:17:12;;;;;;;4.60;1.92;;;;;;;;;;6234971;22;20214;-92
2023/07/05 12:20:29;;;;;;;2.90;1.70;;;;;;;;;;6242047;23;20234;-92
2023/07/05 12:23:36;;;;;;;2.65;1.73;;;;;;;;;;6241599;23;20174;-91
2023/07/05 12:26:41;;;;;;;10.50;2.17;;;;;;;;;;6241573;23;20217;-92
2023/07/05 12:29:50;;;;;;;4.55;1.70;;;;;;;;;;6241958;23;20181;-91
2023/07/05 12:32:57;;;;;;;3.53;2.00;;;;;;;;;;6240574;22;20170;-91
2023/07/05 12:36:08;;;;;;;5.38;2.53;;;;;;;;;;6242947;23;20154;-90
2023/07/05 12:39:15;;;;;;;2.97;1.75;;;;;;;;;;6242930;23;20173;-92
2023/07/05 12:42:21;;;;;;;3.17;1.80;;;;;;;;;;6243125;22;20173;-91
2023/07/05 12:45:28;;;;;;;5.40;1.90;;;;;;;;;;6243975;23;20170;-91
2023/07/05 12:48:34;;;;;;;8.02;1.95;;;;;;;;;;6241952;23;20166;-88
2023/07/05 12:51:49;;;;;;;43.53;3.35;;;;;;;;;;6241858;23;20171;-88
2023/07/05 12:54:55;;;;;;;13.55;2.10;;;;;;;;;;6241094;23;20220;-90
2023/07/05 12:58:06;;;;;;;18.77;2.30;;;;;;;;;;6241528;23;20170;-90
2023/07/05 13:01:13;;;;;;;10.00;2.70;;;;;;;;;;6241744;23;20151;-91
2023/07/05 13:04:20;;;;;;;6.72;2.28;;;;;;;;;;6241743;23;20189;-91
2023/07/05 13:07:27;;;;;;;8.55;2.63;;;;;;;;;;6240225;23;20158;-91
2023/07/05 13:10:37;;;;;;;4.63;1.65;;;;;;;;;;6240222;23;20269;-90
2023/07/05 13:13:43;;;;;;;7.85;2.28;;;;;;;;;;6240246;23;20178;-91
2023/07/05 13:16:56;;;;;;;6.10;2.50;;;;;;;;;;6243799;23;20194;-90
2023/07/05 13:20:13;;;;;;;8.48;2.10;;;;;;;;;;6241540;22;20198;-89
2023/07/05 13:23:30;;;;;;;10.07;3.03;;;;;;;;;;6242338;23;20257;-90
2023/07/05 13:26:37;;;;;;;4.30;1.83;;;;;;;;;;6241785;23;20162;-90
2023/07/05 13:29:42;;;;;;;4.82;1.98;;;;;;;;;;6240967;23;20159;-91
2023/07/05 13:32:51;;;;;;;5.50;2.08;;;;;;;;;;6239481;23;20174;-90
2023/07/05 13:35:56;;;;;;;4.47;2.50;;;;;;;;;;6244956;22;20170;-91
2023/07/05 13:39:04;;;;;;;4.90;2.50;;;;;;;;;;6245552;23;20248;-90
2023/07/05 13:42:11;;;;;;;5.97;2.20;;;;;;;;;;6242546;23;20613;-90
2023/07/05 13:45:22;;;;;;;5.00;2.35;;;;;;;;;;6242028;23;20175;-89
2023/07/05 13:48:27;;;;;;;6.72;2.53;;;;;;;;;;6241878;22;20179;-89
2023/07/05 13:51:34;;;;;;;4.70;2.30;;;;;;;;;;6240849;23;20563;-91
2023/07/05 13:54:43;;;;;;;5.07;2.67;;;;;;;;;;6243801;23;20162;-91
2023/07/05 13:57:54;;;;;;;3.97;2.20;;;;;;;;;;6243938;23;20222;-91
2023/07/05 14:01:00;;;;;;;7.97;2.30;;;;;;;;;;6243522;23;20149;-89
2023/07/05 14:04:05;;;;;;;6.05;2.67;;;;;;;;;;6243498;22;20247;-89
2023/07/05 14:07:11;;;;;;;7.88;2.17;;;;;;;;;;6249332;22;20173;-91
2023/07/05 14:10:18;;;;;;;7.90;2.90;;;;;;;;;;6247231;23;20171;-89
2023/07/05 14:13:24;;;;;;;5.45;2.33;;;;;;;;;;6247688;23;20169;-89
2023/07/05 14:16:30;;;;;;;5.22;2.38;;;;;;;;;;6243177;23;20232;-91
2023/07/05 14:19:41;;;;;;;5.57;2.13;;;;;;;;;;6242948;22;20167;-90
2023/07/05 14:22:47;;;;;;;4.25;2.40;;;;;;;;;;6243601;23;20167;-92
2023/07/05 14:26:00;;;;;;;5.88;2.72;;;;;;;;;;6242982;22;20166;-91
2023/07/05 14:29:19;;;;;;;6.63;2.50;;;;;;;;;;6245138;23;20197;-93
2023/07/05 14:32:25;;;;;;;6.18;2.45;;;;;;;;;;6245713;23;20171;-93
2023/07/05 14:35:40;;;;;;;7.80;2.40;;;;;;;;;;6245877;22;20158;-92
2023/07/05 14:38:45;;;;;;;4.55;2.47;;;;;;;;;;6244624;23;20233;-91
2023/07/05 14:41:52;;;;;;;4.72;2.20;;;;;;;;;;6248036;23;20166;-91
2023/07/05 14:44:57;;;;;;;9.55;2.67;;;;;;;;;;6246259;23;20696;-91
2023/07/05 14:48:05;;;;;;;6.65;2.78;;;;;;;;;;6246349;23;20282;-90
2023/07/05 14:51:12;;;;;;;7.10;2.75;;;;;;;;;;6243485;22;20190;-90
2023/07/05 14:54:19;;;;;;;4.85;2.60;;;;;;;;;;6242695;23;20166;-92
2023/07/05 14:57:31;;;;;;;7.38;2.83;;;;;;;;;;6242104;23;20177;-91
2023/07/05 15:00:36;;;;;;;5.47;2.72;;;;;;;;;;6241324;23;20187;-90
2023/07/05 15:03:45;;;;;;;6.53;2.53;;;;;;;;;;6243484;23;20238;-90
2023/07/05 15:06:51;;;;;;;6.20;2.90;;;;;;;;;;6244560;23;20178;-90
2023/07/05 15:09:56;;;;;;;5.65;2.70;;;;;;;;;;6240652;23;20193;-89
2023/07/05 15:13:24;;;;;;;7.55;3.13;;;;;;;;;;6243628;23;20210;-91
2023/07/05 15:16:56;;;;;;;6.70;3.38;;;;;;;;;;6244685;23;20193;-90
2023/07/05 15:20:05;;;;;;;8.63;3.58;;;;;;;;;;6242411;23;20290;-90
2023/07/05 15:23:10;;;;;;;6.43;2.83;;;;;;;;;;6240556;23;20186;-90
2023/07/05 15:26:15;;;;;;;6.05;2.90;;;;;;;;;;6242743;23;20174;-93
2023/07/05 15:29:21;;;;;;;7.53;2.90;;;;;;;;;;6243376;23;20449;-92
2023/07/05 15:32:26;;;;;;;5.78;2.90;;;;;;;;;;6241275;23;20245;-92
2023/07/05 15:35:33;;;;;;;5.88;3.20;;;;;;;;;;6241674;23;20217;-91
2023/07/05 15:38:39;;;;;;;8.52;3.35;;;;;;;;;;6241656;23;20190;-91
2023/07/05 15:41:44;;;;;;;8.27;3.30;;;;;;;;;;6243467;23;20219;-92
2023/07/05 15:44:50;;;;;;;8.60;3.25;;;;;;;;;;6242284;22;20240;-91
2023/07/05 15:48:05;;;;;;;6.30;3.20;;;;;;;;;;6246480;23;20158;-91
2023/07/05 15:51:12;;;;;;;6.90;3.03;;;;;;;;;;6243460;23;20233;-89
2023/07/05 15:54:20;;;;;;;5.85;2.95;;;;;;;;;;6245741;22;20241;-91
2023/07/05 16:01:51;;;;;;;5.43;3.10;;;;;;;;;;6263961;22;20598;-92
2023/07/05 16:04:57;;;;;;;6.70;3.13;;;;;;;;;;6246642;23;20218;-87
2023/07/05 16:08:05;;;;;;;8.75;3.72;;;;;;;;;;6241757;23;20192;-91
2023/07/05 16:11:12;;;;;;;8.88;3.67;;;;;;;;;;6243151;23;20170;-92
2023/07/05 16:14:17;;;;;;;7.38;3.47;;;;;;;;;;6243434;23;20170;-91
2023/07/05 16:17:44;;;;;;;9.75;3.45;;;;;;;;;;6242353;23;20202;-91
2023/07/05 16:21:16;;;;;;;6.55;3.30;;;;;;;;;;6244428;23;20190;-91
2023/07/05 16:24:24;;;;;;;8.65;4.05;;;;;;;;;;6247614;23;20538;-91
2023/07/05 16:27:29;;;;;;;9.65;3.63;;;;;;;;;;6244356;23;20170;-90
2023/07/05 16:30:43;;;;;;;8.45;4.35;;;;;;;;;;6247097;23;20186;-93
2023/07/05 16:37:10;;;;;;;10.07;4.03;;;;;;;;;;6247886;22;20190;-90
2023/07/05 16:40:30;;;;;;;8.27;4.32;;;;;;;;;;6247500;23;20217;-92
2023/07/05 16:43:41;;;;;;;7.93;4.00;;;;;;;;;;6247842;23;20198;-91
2023/07/05 16:46:48;;;;;;;10.82;3.75;;;;;;;;;;6248605;23;20163;-90
2023/07/05 19:55:10;;;;;;;6.20;2.92;;;;;;;;;;6213742;22;20202;-89
2023/07/05 19:58:45;;;;;;;7.30;2.92;;;;;;;;;;6243523;23;20175;-90
2023/07/05 20:01:52;;;;;;;7.10;3.15;;;;;;;;;;6242657;23;20162;-91
2023/07/05 20:04:57;;;;;;;9.25;3.10;;;;;;;;;;6243564;23;20233;-90
2023/07/05 20:08:03;;;;;;;7.65;3.38;;;;;;;;;;6244477;23;20169;-90
2023/07/05 20:11:33;;;;;;;4.82;2.83;;;;;;;;;;6244157;23;20202;-87
2023/07/05 20:14:41;;;;;;;5.95;3.08;;;;;;;;;;6243579;23;20166;-91
2023/07/05 20:17:46;;;;;;;10.43;3.53;;;;;;;;;;6241353;23;20242;-90
2023/07/05 20:25:53;;;;;;;7.40;3.38;;;;;;;;;;6260012;23;20186;-91
2023/07/05 20:28:59;;;;;;;5.32;2.90;;;;;;;;;;6241539;23;20166;-88
2023/07/05 20:32:10;;;;;;;8.63;3.22;;;;;;;;;;6241137;22;20167;-90
2023/07/05 20:35:17;;;;;;;9.32;3.08;;;;;;;;;;6243216;23;20190;-89
2023/07/05 20:38:23;;;;;;;5.90;3.25;;;;;;;;;;6242064;23;20647;-90
2023/07/05 20:41:29;;;;;;;9.18;3.20;;;;;;;;;;6239111;22;20165;-89
2023/07/05 20:44:34;;;;;;;8.45;3.53;;;;;;;;;;6240459;22;20246;-86
2023/07/05 20:47:41;;;;;;;6.22;2.90;;;;;;;;;;6243234;22;20158;-90
2023/07/05 20:50:46;;;;;;;8.65;3.22;;;;;;;;;;6246952;22;20225;-90
2023/07/05 20:53:52;;;;;;;6.45;3.03;;;;;;;;;;6241432;23;20170;-92
2023/07/05 20:56:59;;;;;;;8.55;3.40;;;;;;;;;;6241694;23;20194;-91
2023/07/05 21:00:04;;;;;;;10.38;4.03;;;;;;;;;;6242657;23;20502;-89
2023/07/05 21:03:16;;;;;;;7.18;3.50;;;;;;;;;;6244111;22;20185;-89
2023/07/05 21:06:22;;;;;;;7.20;3.65;;;;;;;;;;6241528;23;20166;-88
2023/07/05 21:09:28;;;;;;;10.15;3.88;;;;;;;;;;6243407;23;20225;-88
2023/07/05 21:16:28;;;;;;;9.55;4.70;;;;;;;;;;6242924;22;20196;-90
2023/07/05 21:19:35;;;;;;;8.07;4.45;;;;;;;;;;6243952;23;20219;-90
2023/07/05 21:22:41;;;;;;;9.55;4.45;;;;;;;;;;6244436;22;20166;-92
2023/07/05 21:25:47;;;;;;;9.98;4.65;;;;;;;;;;6241909;22;20256;-90
2023/07/05 21:28:52;;;;;;;8.18;3.33;;;;;;;;;;6242577;22;20169;-89
2023/07/05 21:31:58;;;;;;;8.45;3.20;;;;;;;;;;6245787;23;20166;-91
2023/07/05 21:35:05;;;;;;;5.32;2.83;;;;;;;;;;6246504;23;20178;-91
2023/07/05 21:38:11;;;;;;;10.15;3.03;;;;;;;;;;6246077;23;20177;-91
2023/07/05 21:41:18;;;;;;;6.68;3.25;;;;;;;;;;6246884;23;20252;-87
2023/07/05 21:44:23;;;;;;;6.20;3.10;;;;;;;;;;6246697;23;20194;-90
2023/07/05 21:47:31;;;;;;;5.65;3.15;;;;;;;;;;6248952;22;20185;-91
2023/07/05 21:50:40;;;;;;;8.68;3.78;;;;;;;;;;6247773;23;20166;-90
2023/07/05 21:53:47;;;;;;;9.00;4.32;;;;;;;;;;6247612;23;20221;-90
2023/07/05 21:56:55;;;;;;;10.90;4.35;;;;;;;;;;6246242;23;20177;-89
2023/07/05 22:00:07;;;;;;;10.10;3.78;;;;;;;;;;6245446;23;20174;-88
2023/07/05 22:03:19;;;;;;;8.45;3.50;;;;;;;;;;6264556;22;20162;-90
2023/07/05 22:06:26;;;;;;;8.82;3.80;;;;;;;;;;6247495;23;20175;-89
2023/07/05 22:09:31;;;;;;;8.98;3.92;;;;;;;;;;6245589;23;20174;-87
2023/07/05 22:12:40;;;;;;;6.07;3.28;;;;;;;;;;6246006;23;20593;-90
2023/07/05 22:15:46;;;;;;;12.93;4.22;;;;;;;;;;6245651;23;20165;-91
2023/07/05 22:18:55;;;;;;;6.35;3.50;;;;;;;;;;6245822;22;20215;-90
2023/07/05 22:22:04;;;;;;;7.55;3.40;;;;;;;;;;6245269;23;20235;-89
2023/07/05 22:25:09;;;;;;;7.65;3.50;;;;;;;;;;6246214;23;20219;-89
2023/07/05 22:28:15;;;;;;;6.15;3.30;;;;;;;;;;6246337;23;20174;-89
2023/07/05 22:31:20;;;;;;;7.75;3.33;;;;;;;;;;6244234;23;20170;-90
2023/07/05 22:34:25;;;;;;;8.73;3.17;;;;;;;;;;6245809;23;20210;-90
2023/07/05 22:37:33;;;;;;;8.07;3.50;;;;;;;;;;6243398;22;20163;-90
2023/07/05 22:40:39;;;;;;;8.20;3.70;;;;;;;;;;6245295;23;20202;-90
2023/07/05 22:43:45;;;;;;;11.73;3.50;;;;;;;;;;6245520;23;20606;-89
2023/07/05 22:46:51;;;;;;;9.10;3.67;;;;;;;;;;6247120;23;20229;-90
2023/07/05 22:49:57;;;;;;;7.40;3.13;;;;;;;;;;6247418;23;20244;-90
2023/07/05 22:53:05;;;;;;;8.23;3.42;;;;;;;;;;6245449;23;20170;-91
2023/07/05 22:56:11;;;;;;;6.88;2.97;;;;;;;;;;6246647;22;20213;-88
2023/07/05 22:59:22;;;;;;;7.40;3.40;;;;;;;;;;6246916;23;20190;-91
2023/07/05 23:02:27;;;;;;;5.97;3.13;;;;;;;;;;6245440;23;20170;-90
2023/07/05 23:05:35;;;;;;;9.75;3.10;;;;;;;;;;6243102;23;20213;-91
2023/07/05 23:08:42;;;;;;;6.78;3.08;;;;;;;;;;6244400;23;20206;-91
2023/07/05 23:11:47;;;;;;;7.55;3.30;;;;;;;;;;6244241;23;20166;-90
2023/07/05 23:14:53;;;;;;;5.75;3.20;;;;;;;;;;6243457;23;20166;-89
2023/07/05 23:18:01;;;;;;;9.90;3.30;;;;;;;;;;6243646;23;20163;-89
2023/07/05 23:21:10;;;;;;;7.25;4.00;;;;;;;;;;6244593;23;20170;-91
2023/07/05 23:24:19;;;;;;;12.40;3.88;;;;;;;;;;6247282;22;20150;-90
2023/07/05 23:27:26;;;;;;;8.88;4.20;;;;;;;;;;6245820;22;20217;-90
2023/07/05 23:30:31;;;;;;;6.70;3.83;;;;;;;;;;6246442;23;20230;-90
2023/07/05 23:33:37;;;;;;;6.72;3.53;;;;;;;;;;6244993;23;20169;-89
2023/07/05 23:36:43;;;;;;;7.60;3.42;;;;;;;;;;6245753;23;20545;-90
2023/07/05 23:39:50;;;;;;;7.78;3.70;;;;;;;;;;6245922;23;20162;-89
2023/07/05 23:43:05;;;;;;;8.40;3.88;;;;;;;;;;6246019;23;20166;-89
2023/07/05 23:46:12;;;;;;;9.55;3.65;;;;;;;;;;6245975;22;20202;-90
2023/07/05 23:49:19;;;;;;;6.75;3.80;;;;;;;;;;6245528;23;20174;-91
2023/07/05 23:52:25;;;;;;;6.57;4.10;;;;;;;;;;6246466;23;20149;-91
2023/07/05 23:55:32;;;;;;;6.05;3.95;;;;;;;;;;6245713;23;20649;-89
2023/07/05 23:59:04;;;;;;;8.50;4.47;;;;;;;;;;6246324;23;20173;-90
